sensor_id;sensor_type;location;lat;lon;timestamp;pressure;altitude;pressure_sealevel;temperature;humidity
10518;BME280;5307;42.548;22.968;2023-04-21T00:01:57;93524.69;;;6.25;100.00
10518;BME280;5307;42.548;22.968;2023-04-21T00:04:25;93524.44;;;6.20;100.00
10518;BME280;5307;42.548;22.968;2023-04-21T00:06:52;93528.53;;;5.79;100.00
10518;BME280;5307;42.548;22.968;2023-04-21T00:09:21;93516.66;;;5.89;100.00
10518;BME280;5307;42.548;22.968;2023-04-21T00:11:49;93522.09;;;6.06;100.00
10518;BME280;5307;42.548;22.968;2023-04-21T00:14:16;93522.50;;;6.04;100.00
10518;BME280;5307;42.548;22.968;2023-04-21T00:16:43;93522.59;;;6.01;100.00
10518;BME280;5307;42.548;22.968;2023-04-21T00:19:10;93521.47;;;6.14;100.00
10518;BME280;5307;42.548;22.968;2023-04-21T00:21:38;93515.97;;;6.18;100.00
10518;BME280;5307;42.548;22.968;2023-04-21T00:24:05;93524.31;;;5.94;100.00
10518;BME280;5307;42.548;22.968;2023-04-21T00:26:33;93522.78;;;5.93;100.00
10518;BME280;5307;42.548;22.968;2023-04-21T00:29:00;93520.84;;;5.94;100.00
10518;BME280;5307;42.548;22.968;2023-04-21T00:31:28;93527.34;;;5.64;100.00
10518;BME280;5307;42.548;22.968;2023-04-21T00:33:55;93520.38;;;5.63;100.00
10518;BME280;5307;42.548;22.968;2023-04-21T00:36:21;93518.97;;;5.91;100.00
10518;BME280;5307;42.548;22.968;2023-04-21T00:38:49;93517.59;;;5.83;100.00
10518;BME280;5307;42.548;22.968;2023-04-21T00:41:15;93518.38;;;5.67;100.00
10518;BME280;5307;42.548;22.968;2023-04-21T00:44:02;93517.19;;;5.84;100.00
10518;BME280;5307;42.548;22.968;2023-04-21T00:46:29;93515.13;;;5.88;100.00
10518;BME280;5307;42.548;22.968;2023-04-21T00:48:56;93512.34;;;5.76;100.00
10518;BME280;5307;42.548;22.968;2023-04-21T00:51:23;93524.75;;;5.93;100.00
10518;BME280;5307;42.548;22.968;2023-04-21T00:53:51;93518.03;;;5.98;100.00
10518;BME280;5307;42.548;22.968;2023-04-21T00:56:18;93515.00;;;5.79;100.00
10518;BME280;5307;42.548;22.968;2023-04-21T00:58:47;93514.34;;;5.91;100.00
10518;BME280;5307;42.548;22.968;2023-04-21T01:01:15;93512.69;;;5.61;100.00
10518;BME280;5307;42.548;22.968;2023-04-21T01:03:42;93507.22;;;5.65;100.00
10518;BME280;5307;42.548;22.968;2023-04-21T01:06:09;93503.53;;;5.88;100.00
10518;BME280;5307;42.548;22.968;2023-04-21T01:08:37;93513.19;;;5.89;100.00
10518;BME280;5307;42.548;22.968;2023-04-21T01:11:08;93507.19;;;5.98;100.00
10518;BME280;5307;42.548;22.968;2023-04-21T01:13:36;93511.09;;;5.97;100.00
10518;BME280;5307;42.548;22.968;2023-04-21T01:16:04;93504.28;;;6.05;100.00
10518;BME280;5307;42.548;22.968;2023-04-21T01:18:33;93508.44;;;6.09;100.00
10518;BME280;5307;42.548;22.968;2023-04-21T01:21:01;93499.22;;;6.07;100.00
10518;BME280;5307;42.548;22.968;2023-04-21T01:23:30;93504.56;;;6.10;100.00
10518;BME280;5307;42.548;22.968;2023-04-21T01:25:56;93501.84;;;6.10;100.00
10518;BME280;5307;42.548;22.968;2023-04-21T01:28:24;93494.06;;;5.96;100.00
10518;BME280;5307;42.548;22.968;2023-04-21T01:30:51;93490.41;;;6.03;100.00
10518;BME280;5307;42.548;22.968;2023-04-21T01:33:19;93495.59;;;5.97;100.00
10518;BME280;5307;42.548;22.968;2023-04-21T01:35:46;93499.72;;;5.85;100.00
10518;BME280;5307;42.548;22.968;2023-04-21T01:38:13;93501.19;;;5.90;100.00
10518;BME280;5307;42.548;22.968;2023-04-21T01:40:46;93499.50;;;5.63;100.00
10518;BME280;5307;42.548;22.968;2023-04-21T01:43:15;93505.41;;;5.58;100.00
10518;BME280;5307;42.548;22.968;2023-04-21T01:45:42;93505.25;;;5.49;100.00
10518;BME280;5307;42.548;22.968;2023-04-21T01:48:09;93498.56;;;5.54;100.00
10518;BME280;5307;42.548;22.968;2023-04-21T01:50:36;93507.78;;;5.40;100.00
10518;BME280;5307;42.548;22.968;2023-04-21T01:53:03;93502.56;;;5.49;100.00
10518;BME280;5307;42.548;22.968;2023-04-21T01:55:30;93487.81;;;5.50;100.00
10518;BME280;5307;42.548;22.968;2023-04-21T01:57:58;93497.91;;;5.50;100.00
10518;BME280;5307;42.548;22.968;2023-04-21T02:00:25;93502.13;;;5.51;100.00
10518;BME280;5307;42.548;22.968;2023-04-21T02:02:52;93495.25;;;5.46;100.00
10518;BME280;5307;42.548;22.968;2023-04-21T02:05:19;93500.50;;;5.53;100.00
10518;BME280;5307;42.548;22.968;2023-04-21T02:07:46;93495.84;;;5.38;100.00
10518;BME280;5307;42.548;22.968;2023-04-21T02:10:13;93493.22;;;5.34;100.00
10518;BME280;5307;42.548;22.968;2023-04-21T02:12:40;93493.47;;;5.23;100.00
10518;BME280;5307;42.548;22.968;2023-04-21T02:15:09;93496.09;;;5.11;100.00
10518;BME280;5307;42.548;22.968;2023-04-21T02:17:36;93488.84;;;4.88;100.00
10518;BME280;5307;42.548;22.968;2023-04-21T02:20:04;93489.91;;;5.10;100.00
10518;BME280;5307;42.548;22.968;2023-04-21T02:22:31;93494.38;;;5.00;100.00
10518;BME280;5307;42.548;22.968;2023-04-21T02:24:57;93492.22;;;4.92;100.00
10518;BME280;5307;42.548;22.968;2023-04-21T02:27:24;93496.16;;;5.07;100.00
10518;BME280;5307;42.548;22.968;2023-04-21T02:29:51;93497.16;;;4.97;100.00
10518;BME280;5307;42.548;22.968;2023-04-21T02:32:19;93504.94;;;4.95;100.00
10518;BME280;5307;42.548;22.968;2023-04-21T02:34:46;93501.34;;;4.82;100.00
10518;BME280;5307;42.548;22.968;2023-04-21T02:37:13;93506.56;;;4.72;100.00
10518;BME280;5307;42.548;22.968;2023-04-21T02:39:40;93502.38;;;4.88;100.00
10518;BME280;5307;42.548;22.968;2023-04-21T02:42:08;93506.00;;;4.81;100.00
10518;BME280;5307;42.548;22.968;2023-04-21T02:44:36;93508.53;;;4.88;100.00
10518;BME280;5307;42.548;22.968;2023-04-21T02:47:03;93507.97;;;4.97;100.00
10518;BME280;5307;42.548;22.968;2023-04-21T02:49:31;93513.16;;;5.07;100.00
10518;BME280;5307;42.548;22.968;2023-04-21T02:52:00;93506.59;;;4.89;100.00
10518;BME280;5307;42.548;22.968;2023-04-21T02:54:26;93511.78;;;4.99;100.00
10518;BME280;5307;42.548;22.968;2023-04-21T02:56:53;93509.94;;;5.13;100.00
10518;BME280;5307;42.548;22.968;2023-04-21T02:59:20;93514.91;;;4.98;100.00
10518;BME280;5307;42.548;22.968;2023-04-21T03:01:47;93516.41;;;4.83;100.00
10518;BME280;5307;42.548;22.968;2023-04-21T03:04:13;93511.34;;;4.45;100.00
10518;BME280;5307;42.548;22.968;2023-04-21T03:06:42;93511.00;;;4.83;100.00
10518;BME280;5307;42.548;22.968;2023-04-21T03:09:08;93516.63;;;4.72;100.00
10518;BME280;5307;42.548;22.968;2023-04-21T03:11:35;93516.63;;;4.52;100.00
10518;BME280;5307;42.548;22.968;2023-04-21T03:14:02;93512.75;;;4.53;100.00
10518;BME280;5307;42.548;22.968;2023-04-21T03:16:29;93516.97;;;4.34;100.00
10518;BME280;5307;42.548;22.968;2023-04-21T03:18:55;93506.25;;;4.51;100.00
10518;BME280;5307;42.548;22.968;2023-04-21T03:21:22;93512.94;;;4.62;100.00
10518;BME280;5307;42.548;22.968;2023-04-21T03:23:51;93515.63;;;4.62;100.00
10518;BME280;5307;42.548;22.968;2023-04-21T03:26:18;93512.00;;;4.53;100.00
10518;BME280;5307;42.548;22.968;2023-04-21T03:28:45;93510.38;;;4.55;100.00
10518;BME280;5307;42.548;22.968;2023-04-21T03:31:12;93510.38;;;4.55;100.00
10518;BME280;5307;42.548;22.968;2023-04-21T03:33:39;93506.38;;;4.43;100.00
10518;BME280;5307;42.548;22.968;2023-04-21T03:36:06;93507.66;;;4.35;100.00
10518;BME280;5307;42.548;22.968;2023-04-21T03:38:33;93515.91;;;4.48;100.00
10518;BME280;5307;42.548;22.968;2023-04-21T03:41:02;93502.25;;;4.35;100.00
10518;BME280;5307;42.548;22.968;2023-04-21T03:43:29;93510.53;;;4.28;100.00
10518;BME280;5307;42.548;22.968;2023-04-21T03:45:56;93514.97;;;4.38;100.00
10518;BME280;5307;42.548;22.968;2023-04-21T03:48:23;93519.38;;;4.48;100.00
10518;BME280;5307;42.548;22.968;2023-04-21T03:50:49;93529.31;;;4.55;100.00
10518;BME280;5307;42.548;22.968;2023-04-21T03:53:16;93523.13;;;4.35;100.00
10518;BME280;5307;42.548;22.968;2023-04-21T03:55:43;93526.53;;;4.39;100.00
10518;BME280;5307;42.548;22.968;2023-04-21T03:58:14;93529.06;;;4.06;100.00
10518;BME280;5307;42.548;22.968;2023-04-21T04:00:41;93535.03;;;4.17;100.00
10518;BME280;5307;42.548;22.968;2023-04-21T04:03:08;93543.72;;;4.48;100.00
10518;BME280;5307;42.548;22.968;2023-04-21T04:05:35;93528.53;;;4.15;100.00
10518;BME280;5307;42.548;22.968;2023-04-21T04:08:01;93535.78;;;3.98;100.00
10518;BME280;5307;42.548;22.968;2023-04-21T04:10:28;93534.47;;;4.06;100.00
10518;BME280;5307;42.548;22.968;2023-04-21T04:12:55;93530.00;;;4.39;100.00
10518;BME280;5307;42.548;22.968;2023-04-21T04:15:23;93543.78;;;4.45;100.00
10518;BME280;5307;42.548;22.968;2023-04-21T04:17:50;93547.56;;;4.51;100.00
10518;BME280;5307;42.548;22.968;2023-04-21T04:20:17;93543.78;;;4.45;100.00
10518;BME280;5307;42.548;22.968;2023-04-21T04:22:44;93543.28;;;4.10;100.00
10518;BME280;5307;42.548;22.968;2023-04-21T04:25:11;93548.03;;;4.46;100.00
10518;BME280;5307;42.548;22.968;2023-04-21T04:27:41;93543.38;;;4.46;100.00
10518;BME280;5307;42.548;22.968;2023-04-21T04:30:09;93542.00;;;4.58;100.00
10518;BME280;5307;42.548;22.968;2023-04-21T04:32:37;93553.38;;;4.69;100.00
10518;BME280;5307;42.548;22.968;2023-04-21T04:35:06;93548.94;;;4.79;100.00
10518;BME280;5307;42.548;22.968;2023-04-21T04:37:34;93559.06;;;4.95;100.00
10518;BME280;5307;42.548;22.968;2023-04-21T04:40:01;93557.25;;;4.68;100.00
10518;BME280;5307;42.548;22.968;2023-04-21T04:42:30;93564.16;;;4.50;100.00
10518;BME280;5307;42.548;22.968;2023-04-21T04:44:59;93573.34;;;4.56;100.00
10518;BME280;5307;42.548;22.968;2023-04-21T04:47:26;93567.56;;;4.34;100.00
10518;BME280;5307;42.548;22.968;2023-04-21T04:49:54;93580.41;;;4.69;100.00
10518;BME280;5307;42.548;22.968;2023-04-21T04:52:21;93573.06;;;4.90;100.00
10518;BME280;5307;42.548;22.968;2023-04-21T04:54:48;93575.03;;;5.05;100.00
10518;BME280;5307;42.548;22.968;2023-04-21T04:57:14;93578.97;;;4.85;100.00
10518;BME280;5307;42.548;22.968;2023-04-21T04:59:41;93581.41;;;4.79;100.00
10518;BME280;5307;42.548;22.968;2023-04-21T05:02:10;93565.84;;;4.63;100.00
10518;BME280;5307;42.548;22.968;2023-04-21T05:04:37;93571.97;;;4.67;100.00
10518;BME280;5307;42.548;22.968;2023-04-21T05:07:06;93579.16;;;4.94;100.00
10518;BME280;5307;42.548;22.968;2023-04-21T05:09:32;93571.53;;;4.89;100.00
10518;BME280;5307;42.548;22.968;2023-04-21T05:12:00;93574.94;;;4.73;100.00
10518;BME280;5307;42.548;22.968;2023-04-21T05:14:27;93584.28;;;5.08;100.00
10518;BME280;5307;42.548;22.968;2023-04-21T05:16:53;93566.66;;;5.00;100.00
10518;BME280;5307;42.548;22.968;2023-04-21T05:19:20;93582.72;;;5.27;100.00
10518;BME280;5307;42.548;22.968;2023-04-21T05:21:47;93579.72;;;5.41;100.00
10518;BME280;5307;42.548;22.968;2023-04-21T05:24:15;93572.56;;;5.83;100.00
10518;BME280;5307;42.548;22.968;2023-04-21T05:26:47;93579.34;;;6.08;100.00
10518;BME280;5307;42.548;22.968;2023-04-21T05:29:14;93579.25;;;6.28;100.00
10518;BME280;5307;42.548;22.968;2023-04-21T05:31:41;93567.97;;;6.29;100.00
10518;BME280;5307;42.548;22.968;2023-04-21T05:34:08;93562.75;;;6.22;100.00
10518;BME280;5307;42.548;22.968;2023-04-21T05:36:35;93574.78;;;6.21;100.00
10518;BME280;5307;42.548;22.968;2023-04-21T05:39:01;93569.16;;;6.28;100.00
10518;BME280;5307;42.548;22.968;2023-04-21T05:41:30;93557.44;;;6.31;100.00
10518;BME280;5307;42.548;22.968;2023-04-21T05:43:56;93568.78;;;6.42;100.00
10518;BME280;5307;42.548;22.968;2023-04-21T05:46:45;93568.34;;;6.44;100.00
10518;BME280;5307;42.548;22.968;2023-04-21T05:49:12;93570.91;;;6.51;100.00
10518;BME280;5307;42.548;22.968;2023-04-21T05:51:38;93571.75;;;6.48;100.00
10518;BME280;5307;42.548;22.968;2023-04-21T05:54:05;93566.91;;;6.55;100.00
10518;BME280;5307;42.548;22.968;2023-04-21T05:56:33;93563.56;;;6.35;100.00
10518;BME280;5307;42.548;22.968;2023-04-21T05:59:00;93571.28;;;6.66;100.00
10518;BME280;5307;42.548;22.968;2023-04-21T06:01:28;93567.78;;;6.36;100.00
10518;BME280;5307;42.548;22.968;2023-04-21T06:03:55;93559.19;;;6.54;100.00
10518;BME280;5307;42.548;22.968;2023-04-21T06:06:21;93565.66;;;6.73;100.00
10518;BME280;5307;42.548;22.968;2023-04-21T06:08:48;93556.84;;;7.10;100.00
10518;BME280;5307;42.548;22.968;2023-04-21T06:11:15;93554.25;;;7.20;100.00
10518;BME280;5307;42.548;22.968;2023-04-21T06:13:50;93551.88;;;7.72;100.00
10518;BME280;5307;42.548;22.968;2023-04-21T06:16:22;93550.47;;;7.42;100.00
10518;BME280;5307;42.548;22.968;2023-04-21T06:18:49;93553.31;;;7.52;100.00
10518;BME280;5307;42.548;22.968;2023-04-21T06:21:16;93547.13;;;7.51;100.00
10518;BME280;5307;42.548;22.968;2023-04-21T06:23:43;93555.91;;;7.55;100.00
10518;BME280;5307;42.548;22.968;2023-04-21T06:26:10;93550.59;;;7.64;100.00
10518;BME280;5307;42.548;22.968;2023-04-21T06:28:39;93559.50;;;7.65;100.00
10518;BME280;5307;42.548;22.968;2023-04-21T06:31:07;93547.00;;;7.80;100.00
10518;BME280;5307;42.548;22.968;2023-04-21T06:33:39;93539.47;;;7.84;100.00
10518;BME280;5307;42.548;22.968;2023-04-21T06:36:07;93545.78;;;7.94;100.00
10518;BME280;5307;42.548;22.968;2023-04-21T06:38:34;93534.81;;;8.45;100.00
10518;BME280;5307;42.548;22.968;2023-04-21T06:41:00;93538.97;;;9.24;100.00
10518;BME280;5307;42.548;22.968;2023-04-21T06:43:29;93530.78;;;9.24;100.00
10518;BME280;5307;42.548;22.968;2023-04-21T06:45:56;93545.63;;;9.94;100.00
10518;BME280;5307;42.548;22.968;2023-04-21T06:48:24;93534.59;;;10.16;100.00
10518;BME280;5307;42.548;22.968;2023-04-21T06:50:50;93534.94;;;9.38;100.00
10518;BME280;5307;42.548;22.968;2023-04-21T06:53:17;93536.72;;;9.63;100.00
10518;BME280;5307;42.548;22.968;2023-04-21T06:55:46;93530.88;;;10.32;100.00
10518;BME280;5307;42.548;22.968;2023-04-21T06:58:13;93531.31;;;10.30;100.00
10518;BME280;5307;42.548;22.968;2023-04-21T07:00:40;93535.97;;;10.21;100.00
10518;BME280;5307;42.548;22.968;2023-04-21T07:03:07;93519.63;;;10.39;98.86
10518;BME280;5307;42.548;22.968;2023-04-21T07:05:35;93527.03;;;11.12;98.56
10518;BME280;5307;42.548;22.968;2023-04-21T07:08:02;93531.72;;;11.20;97.14
10518;BME280;5307;42.548;22.968;2023-04-21T07:10:28;93530.19;;;11.80;94.46
10518;BME280;5307;42.548;22.968;2023-04-21T07:12:56;93519.47;;;12.00;91.27
10518;BME280;5307;42.548;22.968;2023-04-21T07:15:23;93523.28;;;11.60;89.95
10518;BME280;5307;42.548;22.968;2023-04-21T07:17:50;93528.31;;;11.95;89.72
10518;BME280;5307;42.548;22.968;2023-04-21T07:20:16;93511.00;;;11.56;88.94
10518;BME280;5307;42.548;22.968;2023-04-21T07:22:45;93523.84;;;12.07;87.65
10518;BME280;5307;42.548;22.968;2023-04-21T07:25:12;93513.09;;;12.66;85.37
10518;BME280;5307;42.548;22.968;2023-04-21T07:27:38;93513.84;;;12.66;83.17
10518;BME280;5307;42.548;22.968;2023-04-21T07:30:06;93529.19;;;13.41;84.15
10518;BME280;5307;42.548;22.968;2023-04-21T07:32:33;93519.47;;;13.90;82.97
10518;BME280;5307;42.548;22.968;2023-04-21T07:35:03;93513.97;;;13.40;79.73
10518;BME280;5307;42.548;22.968;2023-04-21T07:37:30;93503.91;;;13.07;79.14
10518;BME280;5307;42.548;22.968;2023-04-21T07:39:58;93509.03;;;13.44;80.46
10518;BME280;5307;42.548;22.968;2023-04-21T07:42:25;93505.06;;;13.60;77.58
10518;BME280;5307;42.548;22.968;2023-04-21T07:44:52;93505.59;;;12.90;80.50
10518;BME280;5307;42.548;22.968;2023-04-21T07:47:20;93519.03;;;12.64;84.24
10518;BME280;5307;42.548;22.968;2023-04-21T07:49:47;93520.34;;;12.54;87.28
10518;BME280;5307;42.548;22.968;2023-04-21T07:52:14;93513.31;;;12.77;82.30
10518;BME280;5307;42.548;22.968;2023-04-21T07:54:40;93511.97;;;13.70;81.57
10518;BME280;5307;42.548;22.968;2023-04-21T07:57:08;93508.81;;;13.03;80.36
10518;BME280;5307;42.548;22.968;2023-04-21T07:59:35;93509.50;;;13.57;76.32
10518;BME280;5307;42.548;22.968;2023-04-21T08:02:02;93501.63;;;14.35;70.33
10518;BME280;5307;42.548;22.968;2023-04-21T08:04:29;93502.63;;;13.97;66.09
10518;BME280;5307;42.548;22.968;2023-04-21T08:06:56;93501.06;;;14.46;63.18
10518;BME280;5307;42.548;22.968;2023-04-21T08:09:23;93490.81;;;15.13;61.45
10518;BME280;5307;42.548;22.968;2023-04-21T08:11:49;93494.09;;;14.71;62.36
10518;BME280;5307;42.548;22.968;2023-04-21T08:14:18;93481.06;;;15.43;61.96
10518;BME280;5307;42.548;22.968;2023-04-21T08:16:44;93486.34;;;14.69;64.20
10518;BME280;5307;42.548;22.968;2023-04-21T08:19:11;93491.75;;;14.84;63.31
10518;BME280;5307;42.548;22.968;2023-04-21T08:21:38;93488.38;;;15.21;64.15
10518;BME280;5307;42.548;22.968;2023-04-21T08:24:05;93467.25;;;15.64;61.46
10518;BME280;5307;42.548;22.968;2023-04-21T08:26:34;93471.84;;;15.47;61.82
10518;BME280;5307;42.548;22.968;2023-04-21T08:29:01;93472.16;;;15.23;60.46
10518;BME280;5307;42.548;22.968;2023-04-21T08:31:31;93463.50;;;15.35;59.31
10518;BME280;5307;42.548;22.968;2023-04-21T08:33:58;93458.06;;;15.47;60.55
10518;BME280;5307;42.548;22.968;2023-04-21T08:36:26;93471.81;;;15.15;61.98
10518;BME280;5307;42.548;22.968;2023-04-21T08:38:53;93447.09;;;16.21;61.22
10518;BME280;5307;42.548;22.968;2023-04-21T08:41:20;93458.44;;;15.91;59.05
10518;BME280;5307;42.548;22.968;2023-04-21T08:43:48;93455.81;;;15.45;58.89
10518;BME280;5307;42.548;22.968;2023-04-21T08:46:15;93449.88;;;15.52;58.84
10518;BME280;5307;42.548;22.968;2023-04-21T08:48:45;93452.19;;;15.91;57.61
10518;BME280;5307;42.548;22.968;2023-04-21T08:51:22;93450.03;;;16.66;56.59
10518;BME280;5307;42.548;22.968;2023-04-21T08:53:49;93454.25;;;16.55;56.21
10518;BME280;5307;42.548;22.968;2023-04-21T08:56:16;93442.53;;;16.18;54.65
10518;BME280;5307;42.548;22.968;2023-04-21T08:58:43;93432.09;;;17.26;53.17
10518;BME280;5307;42.548;22.968;2023-04-21T09:01:10;93437.13;;;17.67;56.21
10518;BME280;5307;42.548;22.968;2023-04-21T09:03:40;93437.66;;;17.71;55.40
10518;BME280;5307;42.548;22.968;2023-04-21T09:06:09;93441.38;;;17.23;54.76
10518;BME280;5307;42.548;22.968;2023-04-21T09:08:38;93429.13;;;17.69;52.73
10518;BME280;5307;42.548;22.968;2023-04-21T09:11:07;93441.94;;;18.58;52.56
10518;BME280;5307;42.548;22.968;2023-04-21T09:13:36;93421.59;;;17.69;52.10
10518;BME280;5307;42.548;22.968;2023-04-21T09:16:05;93438.47;;;16.61;53.38
10518;BME280;5307;42.548;22.968;2023-04-21T09:18:40;93440.94;;;16.48;54.91
10518;BME280;5307;42.548;22.968;2023-04-21T09:21:11;93432.34;;;15.81;56.04
10518;BME280;5307;42.548;22.968;2023-04-21T09:23:40;93434.88;;;16.33;55.26
10518;BME280;5307;42.548;22.968;2023-04-21T09:26:07;93432.19;;;16.55;53.99
10518;BME280;5307;42.548;22.968;2023-04-21T09:28:34;93429.81;;;16.26;54.67
10518;BME280;5307;42.548;22.968;2023-04-21T09:31:01;93417.22;;;16.68;51.54
10518;BME280;5307;42.548;22.968;2023-04-21T09:33:32;93416.44;;;16.61;52.42
10518;BME280;5307;42.548;22.968;2023-04-21T09:36:00;93405.88;;;15.58;57.68
10518;BME280;5307;42.548;22.968;2023-04-21T09:38:29;93415.38;;;15.57;58.32
10518;BME280;5307;42.548;22.968;2023-04-21T09:40:56;93414.47;;;16.08;58.01
10518;BME280;5307;42.548;22.968;2023-04-21T09:43:23;93407.75;;;16.91;56.65
10518;BME280;5307;42.548;22.968;2023-04-21T09:45:51;93415.28;;;16.31;55.62
10518;BME280;5307;42.548;22.968;2023-04-21T09:48:20;93408.72;;;16.17;56.50
10518;BME280;5307;42.548;22.968;2023-04-21T09:50:48;93406.22;;;16.79;55.65
10518;BME280;5307;42.548;22.968;2023-04-21T09:53:15;93404.81;;;16.41;57.06
10518;BME280;5307;42.548;22.968;2023-04-21T09:55:49;93424.22;;;16.09;56.89
10518;BME280;5307;42.548;22.968;2023-04-21T09:58:19;93412.22;;;15.64;58.56
10518;BME280;5307;42.548;22.968;2023-04-21T10:00:49;93407.97;;;16.76;55.42
10518;BME280;5307;42.548;22.968;2023-04-21T10:03:19;93405.47;;;16.78;53.68
10518;BME280;5307;42.548;22.968;2023-04-21T10:05:46;93388.47;;;17.19;55.03
10518;BME280;5307;42.548;22.968;2023-04-21T10:08:13;93399.25;;;16.24;53.16
10518;BME280;5307;42.548;22.968;2023-04-21T10:10:41;93394.69;;;16.10;54.50
10518;BME280;5307;42.548;22.968;2023-04-21T10:13:13;93404.22;;;15.71;53.46
10518;BME280;5307;42.548;22.968;2023-04-21T10:15:43;93391.69;;;15.65;54.30
10518;BME280;5307;42.548;22.968;2023-04-21T10:18:14;93393.66;;;16.07;55.17
10518;BME280;5307;42.548;22.968;2023-04-21T10:20:56;93385.78;;;16.37;56.03
10518;BME280;5307;42.548;22.968;2023-04-21T10:23:28;93391.59;;;16.50;55.73
10518;BME280;5307;42.548;22.968;2023-04-21T10:26:00;93390.41;;;16.09;53.92
10518;BME280;5307;42.548;22.968;2023-04-21T10:28:52;93378.19;;;15.67;52.82
10518;BME280;5307;42.548;22.968;2023-04-21T10:31:21;93388.72;;;15.74;52.54
10518;BME280;5307;42.548;22.968;2023-04-21T10:37:10;93386.97;;;15.71;56.08
10518;BME280;5307;42.548;22.968;2023-04-21T10:39:44;93396.34;;;15.53;56.73
10518;BME280;5307;42.548;22.968;2023-04-21T10:42:42;93400.56;;;15.49;56.98
10518;BME280;5307;42.548;22.968;2023-04-21T10:45:11;93395.06;;;15.17;55.75
10518;BME280;5307;42.548;22.968;2023-04-21T10:47:40;93396.03;;;15.45;57.40
10518;BME280;5307;42.548;22.968;2023-04-21T10:50:27;93396.84;;;15.20;59.43
10518;BME280;5307;42.548;22.968;2023-04-21T10:52:56;93389.16;;;14.98;60.79
10518;BME280;5307;42.548;22.968;2023-04-21T10:55:28;93390.53;;;15.83;58.07
10518;BME280;5307;42.548;22.968;2023-04-21T10:57:55;93394.75;;;16.26;55.54
10518;BME280;5307;42.548;22.968;2023-04-21T11:00:25;93383.41;;;16.95;55.77
10518;BME280;5307;42.548;22.968;2023-04-21T11:02:56;93382.84;;;15.92;53.43
10518;BME280;5307;42.548;22.968;2023-04-21T11:05:28;93381.72;;;16.27;53.21
10518;BME280;5307;42.548;22.968;2023-04-21T11:08:06;93367.84;;;16.86;53.47
10518;BME280;5307;42.548;22.968;2023-04-21T11:10:52;93367.88;;;16.98;53.94
10518;BME280;5307;42.548;22.968;2023-04-21T11:13:21;93382.44;;;17.09;51.75
10518;BME280;5307;42.548;22.968;2023-04-21T11:16:01;93382.13;;;16.03;52.55
10518;BME280;5307;42.548;22.968;2023-04-21T11:18:47;93368.41;;;16.14;53.50
10518;BME280;5307;42.548;22.968;2023-04-21T11:21:15;93378.88;;;15.62;52.88
10518;BME280;5307;42.548;22.968;2023-04-21T11:23:48;93385.22;;;15.73;53.99
10518;BME280;5307;42.548;22.968;2023-04-21T11:26:16;93379.50;;;15.77;55.37
10518;BME280;5307;42.548;22.968;2023-04-21T11:28:46;93381.56;;;15.51;54.46
10518;BME280;5307;42.548;22.968;2023-04-21T11:31:15;93386.19;;;15.33;53.61
10518;BME280;5307;42.548;22.968;2023-04-21T11:33:42;93380.13;;;15.61;56.68
10518;BME280;5307;42.548;22.968;2023-04-21T11:36:09;93373.50;;;15.10;54.34
10518;BME280;5307;42.548;22.968;2023-04-21T11:38:38;93376.69;;;15.03;54.32
10518;BME280;5307;42.548;22.968;2023-04-21T11:41:05;93376.97;;;15.36;54.69
10518;BME280;5307;42.548;22.968;2023-04-21T11:43:33;93376.50;;;15.43;53.35
10518;BME280;5307;42.548;22.968;2023-04-21T11:46:17;93379.66;;;15.31;52.94
10518;BME280;5307;42.548;22.968;2023-04-21T11:48:46;93371.03;;;15.12;53.17
10518;BME280;5307;42.548;22.968;2023-04-21T11:51:23;93360.72;;;15.38;52.90
10518;BME280;5307;42.548;22.968;2023-04-21T11:53:50;93362.56;;;15.53;52.65
10518;BME280;5307;42.548;22.968;2023-04-21T11:56:17;93374.34;;;15.22;51.81
10518;BME280;5307;42.548;22.968;2023-04-21T11:58:46;93367.97;;;15.41;56.35
10518;BME280;5307;42.548;22.968;2023-04-21T12:01:15;93364.25;;;15.44;59.00
10518;BME280;5307;42.548;22.968;2023-04-21T12:03:49;93368.00;;;15.47;64.62
10518;BME280;5307;42.548;22.968;2023-04-21T12:06:20;93363.25;;;15.48;56.70
10518;BME280;5307;42.548;22.968;2023-04-21T12:08:46;93362.50;;;15.47;57.01
10518;BME280;5307;42.548;22.968;2023-04-21T12:11:15;93365.41;;;15.32;53.25
10518;BME280;5307;42.548;22.968;2023-04-21T12:13:43;93357.97;;;15.38;52.86
10518;BME280;5307;42.548;22.968;2023-04-21T12:16:11;93356.59;;;15.60;57.98
10518;BME280;5307;42.548;22.968;2023-04-21T12:18:44;93353.81;;;15.54;55.25
10518;BME280;5307;42.548;22.968;2023-04-21T12:21:13;93338.19;;;15.34;53.13
10518;BME280;5307;42.548;22.968;2023-04-21T12:23:40;93358.06;;;15.55;53.31
10518;BME280;5307;42.548;22.968;2023-04-21T12:26:09;93347.56;;;15.54;52.69
10518;BME280;5307;42.548;22.968;2023-04-21T12:28:37;93353.06;;;15.54;52.57
10518;BME280;5307;42.548;22.968;2023-04-21T12:31:04;93348.22;;;15.43;52.01
10518;BME280;5307;42.548;22.968;2023-04-21T12:33:31;93349.50;;;15.48;53.23
10518;BME280;5307;42.548;22.968;2023-04-21T12:35:59;93346.50;;;15.45;51.96
10518;BME280;5307;42.548;22.968;2023-04-21T12:38:26;93348.53;;;15.51;51.45
10518;BME280;5307;42.548;22.968;2023-04-21T12:40:53;93344.66;;;15.68;53.51
10518;BME280;5307;42.548;22.968;2023-04-21T12:43:19;93347.91;;;15.67;52.98
10518;BME280;5307;42.548;22.968;2023-04-21T12:45:46;93352.44;;;15.76;52.54
10518;BME280;5307;42.548;22.968;2023-04-21T12:51:33;93343.97;;;15.79;52.74
10518;BME280;5307;42.548;22.968;2023-04-21T12:54:00;93339.38;;;15.65;55.69
10518;BME280;5307;42.548;22.968;2023-04-21T12:56:27;93354.31;;;15.53;58.22
10518;BME280;5307;42.548;22.968;2023-04-21T12:58:56;93341.50;;;15.07;59.52
10518;BME280;5307;42.548;22.968;2023-04-21T13:01:25;93334.91;;;14.99;52.89
10518;BME280;5307;42.548;22.968;2023-04-21T13:03:52;93325.28;;;15.14;56.04
10518;BME280;5307;42.548;22.968;2023-04-21T13:06:18;93328.09;;;15.20;68.54
10518;BME280;5307;42.548;22.968;2023-04-21T13:08:47;93322.78;;;15.17;65.21
10518;BME280;5307;42.548;22.968;2023-04-21T13:11:14;93317.69;;;15.04;56.30
10518;BME280;5307;42.548;22.968;2023-04-21T13:13:40;93310.84;;;15.25;60.48